Time;durP1;ratioP1;P1;durP2;ratioP2;P2;SDS_P1;SDS_P2;PMS_P1;PMS_P2;Temp;Humidity;BMP_temperature;BMP_pressure;BME280_temperature;BME280_humidity;BME280_pressure;Samples;Min_cycle;Max_cycle;Signal;HPM_P1;HPM_P2
2022/12/11 00:01:09;;;;;;;25.13;19.53;;;;;;;;;;5113733;28;20470;-73
2022/12/11 00:03:37;;;;;;;26.83;20.80;;;;;;;;;;5093867;28;20475;-76
2022/12/11 00:06:07;;;;;;;25.13;19.40;;;;;;;;;;5094516;28;20479;-75
2022/12/11 00:08:34;;;;;;;25.47;19.57;;;;;;;;;;5094773;28;20455;-76
2022/12/11 00:11:01;;;;;;;23.77;18.57;;;;;;;;;;5094300;28;20439;-76
2022/12/11 00:13:29;;;;;;;28.03;19.30;;;;;;;;;;5094000;28;20452;-76
2022/12/11 00:15:56;;;;;;;27.87;20.50;;;;;;;;;;5101416;28;20451;-74
2022/12/11 00:18:23;;;;;;;22.77;18.43;;;;;;;;;;5096973;28;20448;-74
2022/12/11 00:20:50;;;;;;;26.07;19.47;;;;;;;;;;5100706;28;20454;-76
2022/12/11 00:23:18;;;;;;;23.77;18.57;;;;;;;;;;5099422;28;20448;-75
2022/12/11 00:25:46;;;;;;;21.80;17.63;;;;;;;;;;5095997;28;20463;-75
2022/12/11 00:28:13;;;;;;;25.10;19.03;;;;;;;;;;5095025;28;21004;-75
2022/12/11 00:30:41;;;;;;;22.13;18.60;;;;;;;;;;5095631;28;20439;-73
2022/12/11 00:33:08;;;;;;;25.73;18.63;;;;;;;;;;5094146;28;20471;-76
2022/12/11 00:35:38;;;;;;;23.47;17.60;;;;;;;;;;5093403;28;20452;-75
2022/12/11 00:38:05;;;;;;;21.30;16.97;;;;;;;;;;5093434;28;20439;-74
2022/12/11 00:40:35;;;;;;;22.13;18.67;;;;;;;;;;5089891;28;20443;-74
2022/12/11 00:43:02;;;;;;;24.97;18.53;;;;;;;;;;5083828;28;20459;-75
2022/12/11 00:45:29;;;;;;;22.93;19.03;;;;;;;;;;5082540;28;20460;-76
2022/12/11 00:47:56;;;;;;;24.07;18.77;;;;;;;;;;5093129;28;20472;-75
2022/12/11 00:50:23;;;;;;;25.20;20.23;;;;;;;;;;5101498;28;20444;-74
2022/12/11 00:52:50;;;;;;;25.70;20.10;;;;;;;;;;5104275;28;20444;-76
2022/12/11 00:55:18;;;;;;;26.00;19.10;;;;;;;;;;5105212;28;20481;-75
2022/12/11 00:57:46;;;;;;;25.13;18.90;;;;;;;;;;5106413;28;20967;-76
2022/12/11 01:00:14;;;;;;;23.23;18.23;;;;;;;;;;5098700;28;20451;-75
2022/12/11 01:02:41;;;;;;;23.57;19.33;;;;;;;;;;5094193;28;20443;-75
2022/12/11 01:05:10;;;;;;;27.93;20.23;;;;;;;;;;5093611;28;20824;-74
2022/12/11 01:07:37;;;;;;;28.33;21.00;;;;;;;;;;5092803;28;20479;-77
2022/12/11 01:12:50;;;;;;;26.73;20.40;;;;;;;;;;5091858;28;20395;-74
2022/12/11 01:15:17;;;;;;;29.00;22.00;;;;;;;;;;5092244;28;20989;-74
2022/12/11 01:17:44;;;;;;;27.33;21.20;;;;;;;;;;5092540;28;20443;-74
2022/12/11 01:20:12;;;;;;;25.97;20.57;;;;;;;;;;5092606;28;20450;-75
2022/12/11 01:22:39;;;;;;;25.57;19.57;;;;;;;;;;5092172;28;20444;-75
2022/12/11 01:25:06;;;;;;;27.63;21.40;;;;;;;;;;5092086;28;20455;-75
2022/12/11 01:27:33;;;;;;;31.43;22.50;;;;;;;;;;5095763;28;20482;-75
2022/12/11 01:30:02;;;;;;;27.73;21.67;;;;;;;;;;5099134;28;20440;-74
2022/12/11 01:32:29;;;;;;;28.83;20.97;;;;;;;;;;5093293;28;20443;-75
2022/12/11 01:34:56;;;;;;;30.37;21.60;;;;;;;;;;5091728;28;20458;-74
2022/12/11 01:37:23;;;;;;;29.13;21.47;;;;;;;;;;5087860;28;20441;-74
2022/12/11 01:39:50;;;;;;;31.47;22.27;;;;;;;;;;5092285;28;20440;-76
2022/12/11 01:42:18;;;;;;;27.00;21.00;;;;;;;;;;5110790;28;20443;-74
2022/12/11 01:45:04;;;;;;;27.37;20.50;;;;;;;;;;5114544;28;20436;-75
2022/12/11 01:47:33;;;;;;;26.27;19.77;;;;;;;;;;5113178;28;21016;-76
2022/12/11 01:50:00;;;;;;;24.87;19.33;;;;;;;;;;5115164;28;20439;-75
2022/12/11 01:52:27;;;;;;;24.93;18.67;;;;;;;;;;5115405;28;20458;-75
2022/12/11 01:54:54;;;;;;;25.50;19.67;;;;;;;;;;5112500;28;20446;-74
2022/12/11 01:57:21;;;;;;;23.73;17.97;;;;;;;;;;5112432;28;20442;-74
2022/12/11 01:59:48;;;;;;;24.70;19.70;;;;;;;;;;5111775;28;20450;-74
2022/12/11 02:02:18;;;;;;;24.67;19.60;;;;;;;;;;5112200;28;20446;-75
2022/12/11 02:04:47;;;;;;;24.00;18.80;;;;;;;;;;5111265;28;20958;-76
2022/12/11 02:07:14;;;;;;;26.30;19.70;;;;;;;;;;5112156;28;20532;-76
2022/12/11 02:09:42;;;;;;;25.07;20.37;;;;;;;;;;5112117;28;20439;-75
2022/12/11 02:12:14;;;;;;;23.80;18.77;;;;;;;;;;5111936;28;20442;-74
2022/12/11 02:14:43;;;;;;;26.47;19.13;;;;;;;;;;5098277;28;20429;-75
2022/12/11 02:17:12;;;;;;;26.43;20.33;;;;;;;;;;5091072;28;20469;-75
2022/12/11 02:19:45;;;;;;;27.57;21.13;;;;;;;;;;5091456;28;20458;-75
2022/12/11 02:22:17;;;;;;;23.63;19.90;;;;;;;;;;5091075;28;20443;-75
2022/12/11 02:24:53;;;;;;;25.27;19.90;;;;;;;;;;5090436;28;20444;-75
2022/12/11 02:27:26;;;;;;;23.83;18.90;;;;;;;;;;5091219;28;20459;-75
2022/12/11 02:29:58;;;;;;;27.60;20.07;;;;;;;;;;5091582;28;20443;-74
2022/12/11 02:32:27;;;;;;;25.70;20.67;;;;;;;;;;5091268;28;20450;-74
2022/12/11 02:34:57;;;;;;;23.50;18.60;;;;;;;;;;5091559;28;20450;-74
2022/12/11 02:37:25;;;;;;;23.87;18.43;;;;;;;;;;5091326;28;20452;-75
2022/12/11 02:39:54;;;;;;;22.17;16.93;;;;;;;;;;5091224;28;20440;-76
2022/12/11 02:42:22;;;;;;;25.07;18.37;;;;;;;;;;5091975;28;20531;-74
2022/12/11 02:44:50;;;;;;;21.40;17.10;;;;;;;;;;5090805;28;20444;-75
2022/12/11 02:47:19;;;;;;;24.87;19.67;;;;;;;;;;5090694;28;20480;-75
2022/12/11 02:49:48;;;;;;;23.60;18.63;;;;;;;;;;5090594;28;20447;-74
2022/12/11 02:52:18;;;;;;;22.50;17.80;;;;;;;;;;5090656;28;20443;-74
2022/12/11 02:54:45;;;;;;;21.53;16.40;;;;;;;;;;5090058;28;20440;-75
2022/12/11 02:57:15;;;;;;;19.00;16.27;;;;;;;;;;5090496;28;20584;-75
2022/12/11 02:59:44;;;;;;;21.17;15.53;;;;;;;;;;5090433;28;20484;-76
2022/12/11 03:02:11;;;;;;;21.80;15.63;;;;;;;;;;5090393;28;20439;-74
2022/12/11 03:04:40;;;;;;;19.47;15.70;;;;;;;;;;5089892;28;20444;-75
2022/12/11 03:07:10;;;;;;;19.47;15.70;;;;;;;;;;5090121;28;20486;-76
2022/12/11 03:09:38;;;;;;;18.80;15.20;;;;;;;;;;5090601;28;20462;-76
2022/12/11 03:12:05;;;;;;;16.80;14.27;;;;;;;;;;5090581;28;20439;-74
2022/12/11 03:14:33;;;;;;;16.87;14.17;;;;;;;;;;5090200;28;20473;-75
2022/12/11 03:17:02;;;;;;;17.33;14.43;;;;;;;;;;5090063;28;20455;-76
2022/12/11 03:19:33;;;;;;;19.57;15.50;;;;;;;;;;5090588;28;20447;-75
2022/12/11 03:22:04;;;;;;;21.93;15.87;;;;;;;;;;5090257;28;20447;-75
2022/12/11 03:24:33;;;;;;;21.50;15.87;;;;;;;;;;5091636;28;20440;-74
2022/12/11 03:27:04;;;;;;;23.13;16.87;;;;;;;;;;5095309;28;20487;-74
2022/12/11 03:29:32;;;;;;;19.20;16.03;;;;;;;;;;5106658;28;20435;-76
2022/12/11 03:32:03;;;;;;;21.57;16.67;;;;;;;;;;5113188;28;20450;-75
2022/12/11 03:34:32;;;;;;;21.63;17.20;;;;;;;;;;5090022;28;20439;-75
2022/12/11 03:37:00;;;;;;;24.40;18.00;;;;;;;;;;5090355;28;20466;-76
2022/12/11 03:39:31;;;;;;;22.93;17.43;;;;;;;;;;5090553;28;20436;-75
2022/12/11 03:42:00;;;;;;;21.37;15.90;;;;;;;;;;5090107;28;20509;-75
2022/12/11 03:44:29;;;;;;;22.60;17.13;;;;;;;;;;5089499;28;20815;-75
2022/12/11 03:46:57;;;;;;;20.80;17.33;;;;;;;;;;5090341;28;20479;-76
2022/12/11 03:49:27;;;;;;;24.40;18.37;;;;;;;;;;5090036;28;20451;-76
2022/12/11 03:51:56;;;;;;;22.87;18.40;;;;;;;;;;5090082;28;20483;-73
2022/12/11 03:54:24;;;;;;;20.77;18.10;;;;;;;;;;5089518;28;20436;-76
2022/12/11 03:56:54;;;;;;;22.17;17.87;;;;;;;;;;5090283;28;20468;-75
2022/12/11 03:59:21;;;;;;;21.60;17.00;;;;;;;;;;5089932;28;20459;-75
2022/12/11 04:01:48;;;;;;;24.33;16.77;;;;;;;;;;5089742;28;20834;-75
2022/12/11 04:04:16;;;;;;;20.57;17.27;;;;;;;;;;5089532;28;20443;-75
2022/12/11 04:06:43;;;;;;;20.53;15.50;;;;;;;;;;5089501;28;20464;-75
2022/12/11 04:09:10;;;;;;;21.13;16.80;;;;;;;;;;5089605;28;20440;-75
2022/12/11 04:11:38;;;;;;;22.30;16.13;;;;;;;;;;5090547;28;20452;-74
2022/12/11 04:16:52;;;;;;;19.37;16.10;;;;;;;;;;5099844;28;20549;-76
2022/12/11 04:24:55;;;;;;;18.17;13.97;;;;;;;;;;5088952;28;20482;-75
2022/12/11 04:30:13;;;;;;;17.10;13.40;;;;;;;;;;5082630;28;20945;-74
2022/12/11 04:32:40;;;;;;;16.70;13.40;;;;;;;;;;5090550;28;20442;-75
2022/12/11 04:35:08;;;;;;;16.50;13.70;;;;;;;;;;5091296;28;20466;-75
2022/12/11 04:37:35;;;;;;;16.60;13.93;;;;;;;;;;5091835;28;20454;-74
2022/12/11 04:40:02;;;;;;;14.33;11.77;;;;;;;;;;5093197;28;20983;-75
2022/12/11 04:42:30;;;;;;;16.07;13.30;;;;;;;;;;5093227;28;20496;-75
2022/12/11 04:44:57;;;;;;;15.40;13.10;;;;;;;;;;5092966;28;20440;-74
2022/12/11 04:47:26;;;;;;;19.43;14.63;;;;;;;;;;5092851;28;20479;-74
2022/12/11 04:49:53;;;;;;;16.80;13.27;;;;;;;;;;5093769;28;20443;-74
2022/12/11 04:52:20;;;;;;;17.70;14.30;;;;;;;;;;5093786;28;20439;-74
2022/12/11 04:54:47;;;;;;;18.50;14.73;;;;;;;;;;5093159;28;20436;-76
2022/12/11 04:57:15;;;;;;;18.10;13.20;;;;;;;;;;5094743;28;20456;-75
2022/12/11 04:59:42;;;;;;;17.10;13.70;;;;;;;;;;5094335;28;20795;-74
2022/12/11 05:02:09;;;;;;;18.73;14.77;;;;;;;;;;5085872;28;21311;-76
2022/12/11 05:04:37;;;;;;;18.00;15.20;;;;;;;;;;5093658;28;20436;-75
2022/12/11 05:07:05;;;;;;;19.87;14.63;;;;;;;;;;5093306;28;20464;-74
2022/12/11 05:09:32;;;;;;;19.30;14.80;;;;;;;;;;5094664;28;20432;-73
2022/12/11 05:11:59;;;;;;;18.53;15.07;;;;;;;;;;5096553;28;20443;-74
2022/12/11 05:14:26;;;;;;;16.87;14.20;;;;;;;;;;5095829;28;20444;-75
2022/12/11 05:16:53;;;;;;;18.70;14.47;;;;;;;;;;5096219;28;20481;-75
2022/12/11 05:19:20;;;;;;;16.63;14.20;;;;;;;;;;5092364;28;20443;-78
2022/12/11 05:21:49;;;;;;;17.50;14.40;;;;;;;;;;5092399;28;20440;-76
2022/12/11 05:24:16;;;;;;;17.63;15.07;;;;;;;;;;5092394;28;20455;-75
2022/12/11 05:26:43;;;;;;;20.10;15.27;;;;;;;;;;5092751;28;20459;-76
2022/12/11 05:29:10;;;;;;;19.37;14.80;;;;;;;;;;5092288;28;20486;-75
2022/12/11 05:31:37;;;;;;;18.97;14.43;;;;;;;;;;5092536;28;20448;-74
2022/12/11 05:34:04;;;;;;;18.37;13.77;;;;;;;;;;5092066;28;20435;-75
2022/12/11 05:36:32;;;;;;;16.57;13.50;;;;;;;;;;5092350;28;20490;-75
2022/12/11 05:39:01;;;;;;;16.57;14.27;;;;;;;;;;5094063;28;20442;-76
2022/12/11 05:41:30;;;;;;;16.10;13.40;;;;;;;;;;5097993;28;20800;-74
2022/12/11 05:43:57;;;;;;;17.63;14.97;;;;;;;;;;5097078;28;20443;-75
2022/12/11 05:46:25;;;;;;;15.97;12.80;;;;;;;;;;5098719;28;20470;-75
2022/12/11 05:48:53;;;;;;;18.43;13.13;;;;;;;;;;5097200;28;20484;-74
2022/12/11 05:51:20;;;;;;;17.00;13.13;;;;;;;;;;5098054;28;20435;-76
2022/12/11 05:53:48;;;;;;;13.67;11.80;;;;;;;;;;5093761;28;20522;-75
2022/12/11 05:56:17;;;;;;;16.50;13.57;;;;;;;;;;5093354;28;20468;-76
2022/12/11 05:58:45;;;;;;;16.70;13.07;;;;;;;;;;5095491;28;20440;-75
2022/12/11 06:01:13;;;;;;;16.80;13.27;;;;;;;;;;5104953;28;20446;-76
2022/12/11 06:03:40;;;;;;;15.60;13.70;;;;;;;;;;5115354;28;20447;-75
2022/12/11 06:06:08;;;;;;;17.80;13.17;;;;;;;;;;5115092;28;20458;-76
2022/12/11 06:08:35;;;;;;;19.77;14.90;;;;;;;;;;5117057;28;20475;-74
2022/12/11 06:11:02;;;;;;;21.87;16.67;;;;;;;;;;5118843;28;20446;-77
2022/12/11 06:13:31;;;;;;;18.50;15.77;;;;;;;;;;5114741;28;20440;-75
2022/12/11 06:16:00;;;;;;;22.80;17.47;;;;;;;;;;5096917;28;20470;-75
2022/12/11 06:18:27;;;;;;;21.70;17.17;;;;;;;;;;5097658;28;20931;-74
2022/12/11 06:20:54;;;;;;;22.80;19.17;;;;;;;;;;5095038;28;20440;-75
2022/12/11 06:23:21;;;;;;;21.47;18.00;;;;;;;;;;5094827;28;20514;-74
2022/12/11 06:25:48;;;;;;;23.03;17.70;;;;;;;;;;5096041;28;20870;-74
2022/12/11 06:28:15;;;;;;;24.50;18.00;;;;;;;;;;5096259;28;21024;-76
2022/12/11 06:30:44;;;;;;;22.40;18.40;;;;;;;;;;5095962;28;20818;-75
2022/12/11 06:33:12;;;;;;;24.03;18.30;;;;;;;;;;5095489;28;20440;-75
2022/12/11 06:35:39;;;;;;;25.53;17.80;;;;;;;;;;5095587;28;20468;-75
2022/12/11 06:38:06;;;;;;;24.50;17.90;;;;;;;;;;5092090;28;20463;-75
2022/12/11 06:40:33;;;;;;;21.77;17.47;;;;;;;;;;5091271;28;20967;-74
2022/12/11 06:43:00;;;;;;;22.83;17.80;;;;;;;;;;5090377;28;20455;-75
2022/12/11 06:45:27;;;;;;;23.60;18.47;;;;;;;;;;5090936;28;20997;-74
2022/12/11 06:47:55;;;;;;;24.50;18.90;;;;;;;;;;5090886;28;20858;-76
2022/12/11 06:50:23;;;;;;;21.60;17.47;;;;;;;;;;5091143;28;20451;-75
2022/12/11 06:52:50;;;;;;;19.30;16.47;;;;;;;;;;5090335;28;20440;-75
2022/12/11 06:55:17;;;;;;;23.20;17.80;;;;;;;;;;5090853;28;20475;-76
2022/12/11 06:57:44;;;;;;;23.73;18.23;;;;;;;;;;5091153;28;20497;-73
2022/12/11 07:00:12;;;;;;;24.27;18.60;;;;;;;;;;5090494;28;20455;-76
2022/12/11 07:02:39;;;;;;;24.40;17.83;;;;;;;;;;5090374;28;20447;-75
2022/12/11 07:05:08;;;;;;;22.40;16.53;;;;;;;;;;5090779;28;20581;-75
2022/12/11 07:07:35;;;;;;;25.50;19.43;;;;;;;;;;5086415;28;20443;-76
2022/12/11 07:10:02;;;;;;;24.80;17.87;;;;;;;;;;5090738;28;20451;-75
2022/12/11 07:12:29;;;;;;;20.80;17.00;;;;;;;;;;5090402;28;20445;-75
2022/12/11 07:14:56;;;;;;;23.87;17.93;;;;;;;;;;5091624;28;20485;-77
2022/12/11 07:17:23;;;;;;;22.77;18.30;;;;;;;;;;5108584;28;20511;-75
2022/12/11 07:19:50;;;;;;;23.97;18.40;;;;;;;;;;5113351;28;20423;-76
2022/12/11 07:22:19;;;;;;;23.30;17.10;;;;;;;;;;5127730;28;20446;-75
2022/12/11 07:24:46;;;;;;;25.10;17.47;;;;;;;;;;5127950;28;20442;-75
2022/12/11 07:27:13;;;;;;;22.90;16.87;;;;;;;;;;5120102;28;20465;-75
2022/12/11 07:29:40;;;;;;;23.23;17.60;;;;;;;;;;5110912;28;20474;-74
2022/12/11 07:32:07;;;;;;;21.80;17.47;;;;;;;;;;5110764;28;20446;-76
2022/12/11 07:34:34;;;;;;;23.30;19.03;;;;;;;;;;5109934;28;20442;-75
2022/12/11 07:37:01;;;;;;;25.23;18.53;;;;;;;;;;5098871;28;20471;-74
2022/12/11 07:39:30;;;;;;;23.63;18.80;;;;;;;;;;5091165;28;20440;-75
2022/12/11 07:41:57;;;;;;;22.10;16.43;;;;;;;;;;5105814;28;20446;-74
2022/12/11 07:44:24;;;;;;;20.90;17.50;;;;;;;;;;5109926;28;20473;-76
2022/12/11 07:46:51;;;;;;;18.97;15.43;;;;;;;;;;5109995;28;20459;-74
2022/12/11 07:49:18;;;;;;;26.70;17.70;;;;;;;;;;5110017;28;20474;-76
2022/12/11 07:51:45;;;;;;;21.40;16.30;;;;;;;;;;5111429;28;20443;-74
2022/12/11 07:54:15;;;;;;;20.30;16.10;;;;;;;;;;5115229;28;20450;-75
2022/12/11 07:56:44;;;;;;;20.20;16.03;;;;;;;;;;5114564;28;20950;-76
2022/12/11 07:59:11;;;;;;;24.90;17.23;;;;;;;;;;5121257;28;20443;-75
2022/12/11 08:01:39;;;;;;;22.63;17.07;;;;;;;;;;5126917;28;20435;-75
2022/12/11 08:04:06;;;;;;;22.20;18.10;;;;;;;;;;5131669;28;20423;-77
2022/12/11 08:06:35;;;;;;;20.70;15.63;;;;;;;;;;5135196;28;20441;-75
2022/12/11 08:09:03;;;;;;;18.30;15.40;;;;;;;;;;5118888;28;20485;-74
2022/12/11 08:11:30;;;;;;;21.53;16.63;;;;;;;;;;5117096;28;20469;-75
2022/12/11 08:13:59;;;;;;;20.60;16.53;;;;;;;;;;5107936;28;20439;-75
2022/12/11 08:16:26;;;;;;;22.73;16.20;;;;;;;;;;5096159;28;20460;-75
2022/12/11 08:18:54;;;;;;;21.77;17.67;;;;;;;;;;5095462;28;20444;-76
2022/12/11 08:21:22;;;;;;;22.53;16.57;;;;;;;;;;5096459;28;20508;-74
2022/12/11 08:23:49;;;;;;;20.83;15.97;;;;;;;;;;5103332;28;20443;-76
2022/12/11 08:26:17;;;;;;;26.77;17.93;;;;;;;;;;5097474;28;20493;-76
2022/12/11 08:28:45;;;;;;;21.63;17.03;;;;;;;;;;5081335;28;20880;-76
2022/12/11 08:31:14;;;;;;;19.37;15.60;;;;;;;;;;5085471;28;20451;-75
2022/12/11 08:33:41;;;;;;;23.23;16.23;;;;;;;;;;5092858;28;20443;-76
2022/12/11 08:36:09;;;;;;;19.27;15.63;;;;;;;;;;5093288;28;21042;-75
2022/12/11 08:38:37;;;;;;;18.37;16.37;;;;;;;;;;5093411;28;20441;-76
2022/12/11 08:41:08;;;;;;;24.10;17.80;;;;;;;;;;5093215;28;20439;-75
2022/12/11 08:43:35;;;;;;;20.07;16.30;;;;;;;;;;5092737;28;20806;-74
2022/12/11 08:46:02;;;;;;;20.10;17.27;;;;;;;;;;5093510;28;20459;-75
2022/12/11 08:48:31;;;;;;;22.93;16.90;;;;;;;;;;5093382;28;20484;-75
2022/12/11 08:51:00;;;;;;;20.80;16.70;;;;;;;;;;5094027;28;20444;-76
2022/12/11 08:53:27;;;;;;;23.23;17.13;;;;;;;;;;5092543;28;20435;-75
2022/12/11 08:55:54;;;;;;;21.33;17.47;;;;;;;;;;5093217;28;20485;-76
2022/12/11 08:58:21;;;;;;;19.60;15.47;;;;;;;;;;5093227;28;20440;-74
2022/12/11 09:00:48;;;;;;;22.37;17.20;;;;;;;;;;5093132;28;20535;-77
2022/12/11 09:03:15;;;;;;;25.00;17.60;;;;;;;;;;5092677;28;20447;-74
2022/12/11 09:05:44;;;;;;;24.67;18.13;;;;;;;;;;5093005;28;20498;-75
2022/12/11 09:08:11;;;;;;;25.50;18.80;;;;;;;;;;5090054;28;20816;-74
2022/12/11 09:10:38;;;;;;;26.03;19.77;;;;;;;;;;5084657;28;20441;-75
2022/12/11 09:13:05;;;;;;;24.33;17.90;;;;;;;;;;5091771;28;20444;-76
2022/12/11 09:15:32;;;;;;;22.97;17.97;;;;;;;;;;5091781;28;20464;-75
2022/12/11 09:17:59;;;;;;;25.27;17.80;;;;;;;;;;5091459;28;20445;-75
2022/12/11 09:20:26;;;;;;;22.10;17.07;;;;;;;;;;5090692;28;20505;-75
2022/12/11 09:22:55;;;;;;;26.20;17.90;;;;;;;;;;5088028;28;20978;-76
2022/12/11 09:25:22;;;;;;;22.03;17.83;;;;;;;;;;5084316;28;20465;-76
2022/12/11 09:27:49;;;;;;;21.80;18.10;;;;;;;;;;5092635;28;20443;-76
2022/12/11 09:30:16;;;;;;;21.37;17.33;;;;;;;;;;5093092;28;20467;-75
2022/12/11 09:32:43;;;;;;;22.30;18.03;;;;;;;;;;5095494;28;20447;-75
2022/12/11 09:35:10;;;;;;;25.20;18.60;;;;;;;;;;5104542;28;22130;-75
2022/12/11 09:37:37;;;;;;;21.50;18.30;;;;;;;;;;5100598;28;20455;-75
2022/12/11 09:40:07;;;;;;;24.07;19.50;;;;;;;;;;5104529;28;20441;-77
2022/12/11 09:42:42;;;;;;;20.87;16.47;;;;;;;;;;5104352;28;20444;-75
2022/12/11 09:45:13;;;;;;;20.77;16.53;;;;;;;;;;5104913;28;20444;-75
2022/12/11 09:47:42;;;;;;;19.37;15.27;;;;;;;;;;5099574;28;20447;-76
2022/12/11 09:50:13;;;;;;;19.60;15.60;;;;;;;;;;5093230;28;20479;-76
2022/12/11 09:52:43;;;;;;;21.80;17.50;;;;;;;;;;5092447;28;20939;-76
2022/12/11 09:55:15;;;;;;;22.23;16.47;;;;;;;;;;5085442;28;20541;-76
2022/12/11 09:57:50;;;;;;;19.87;15.70;;;;;;;;;;5077450;28;21095;-76
2022/12/11 10:00:28;;;;;;;20.10;14.70;;;;;;;;;;5092542;28;20463;-76
2022/12/11 10:03:03;;;;;;;18.97;16.40;;;;;;;;;;5091699;28;20844;-77
2022/12/11 10:05:33;;;;;;;21.50;15.83;;;;;;;;;;5089938;28;20563;-77
2022/12/11 10:08:03;;;;;;;20.50;17.00;;;;;;;;;;5084411;28;20449;-75
2022/12/11 10:10:38;;;;;;;25.37;18.90;;;;;;;;;;5092149;28;20484;-76
2022/12/11 10:13:07;;;;;;;23.50;17.87;;;;;;;;;;5092050;28;20469;-76
2022/12/11 10:15:40;;;;;;;25.90;20.07;;;;;;;;;;5082860;28;20457;-76
2022/12/11 10:18:12;;;;;;;20.23;17.97;;;;;;;;;;5086775;28;20451;-75
2022/12/11 10:20:41;;;;;;;22.43;18.07;;;;;;;;;;5071677;28;20434;-77
2022/12/11 10:23:09;;;;;;;25.13;18.00;;;;;;;;;;5071577;28;20460;-75
2022/12/11 10:25:40;;;;;;;25.03;20.20;;;;;;;;;;5071382;28;20470;-75
2022/12/11 10:28:12;;;;;;;22.97;18.40;;;;;;;;;;5086269;28;20497;-75
2022/12/11 10:30:41;;;;;;;24.00;19.10;;;;;;;;;;5091452;28;20507;-74
2022/12/11 10:33:15;;;;;;;22.87;18.87;;;;;;;;;;5091543;28;20451;-75
2022/12/11 10:35:44;;;;;;;27.53;19.20;;;;;;;;;;5091844;28;20566;-77
2022/12/11 10:38:13;;;;;;;27.10;20.63;;;;;;;;;;5091616;28;20495;-76
2022/12/11 10:40:43;;;;;;;24.97;18.93;;;;;;;;;;5091851;28;20442;-75
2022/12/11 10:43:10;;;;;;;21.80;18.40;;;;;;;;;;5091522;28;20448;-75
2022/12/11 10:45:38;;;;;;;21.80;18.93;;;;;;;;;;5094434;28;20468;-76
2022/12/11 10:48:06;;;;;;;27.07;20.70;;;;;;;;;;5093912;28;20878;-76
2022/12/11 10:50:33;;;;;;;24.90;18.90;;;;;;;;;;5092041;28;20476;-75
2022/12/11 10:53:01;;;;;;;23.17;17.77;;;;;;;;;;5091925;28;20505;-75
2022/12/11 10:55:30;;;;;;;24.87;19.90;;;;;;;;;;5092788;28;20466;-76
2022/12/11 10:58:00;;;;;;;25.20;20.27;;;;;;;;;;5092056;28;20483;-75
2022/12/11 11:00:31;;;;;;;25.73;19.00;;;;;;;;;;5092647;28;20451;-77
2022/12/11 11:02:58;;;;;;;25.83;19.33;;;;;;;;;;5093319;28;20952;-75
2022/12/11 11:05:29;;;;;;;23.97;19.23;;;;;;;;;;5091595;28;20460;-76
2022/12/11 11:08:03;;;;;;;24.53;18.30;;;;;;;;;;5092026;28;20454;-76
2022/12/11 11:10:31;;;;;;;21.93;19.47;;;;;;;;;;5091817;28;20475;-77
2022/12/11 11:13:02;;;;;;;25.23;19.03;;;;;;;;;;5090926;28;20880;-77
2022/12/11 11:15:30;;;;;;;23.63;20.07;;;;;;;;;;5090726;28;20464;-76
2022/12/11 11:17:58;;;;;;;25.43;20.30;;;;;;;;;;5090472;28;20446;-76
2022/12/11 11:20:26;;;;;;;25.60;19.50;;;;;;;;;;5091272;28;20440;-74
2022/12/11 11:22:55;;;;;;;23.90;18.87;;;;;;;;;;5095189;28;20440;-74
2022/12/11 11:25:23;;;;;;;23.00;18.77;;;;;;;;;;5099978;28;20460;-75
2022/12/11 11:27:51;;;;;;;21.73;17.47;;;;;;;;;;5106430;28;20448;-74
2022/12/11 11:30:21;;;;;;;22.17;17.97;;;;;;;;;;5106255;28;20467;-75
2022/12/11 11:32:49;;;;;;;24.07;18.30;;;;;;;;;;5124531;28;20452;-75
2022/12/11 11:35:18;;;;;;;26.33;19.50;;;;;;;;;;5125727;28;20479;-74
2022/12/11 11:37:46;;;;;;;25.93;17.73;;;;;;;;;;5122793;28;20489;-76
2022/12/11 11:40:16;;;;;;;23.40;18.23;;;;;;;;;;5113002;28;20449;-75
2022/12/11 11:42:47;;;;;;;24.27;19.63;;;;;;;;;;5110079;28;20446;-76
2022/12/11 11:45:16;;;;;;;21.77;17.00;;;;;;;;;;5086152;28;20474;-76
2022/12/11 11:47:49;;;;;;;23.93;18.60;;;;;;;;;;5094046;28;20439;-76
2022/12/11 11:50:18;;;;;;;24.70;19.30;;;;;;;;;;5111687;28;20566;-76
2022/12/11 11:52:48;;;;;;;20.67;16.33;;;;;;;;;;5113996;28;20442;-76
2022/12/11 11:55:17;;;;;;;23.07;17.63;;;;;;;;;;5114723;28;20458;-77
2022/12/11 11:57:48;;;;;;;22.73;18.50;;;;;;;;;;5097822;28;20444;-74
2022/12/11 12:00:19;;;;;;;21.50;18.17;;;;;;;;;;5093482;28;20551;-76
2022/12/11 12:02:49;;;;;;;24.20;18.07;;;;;;;;;;5091194;28;20451;-75
2022/12/11 12:05:17;;;;;;;20.30;18.17;;;;;;;;;;5093414;28;20976;-76
2022/12/11 12:07:48;;;;;;;22.83;18.30;;;;;;;;;;5093732;28;20453;-76
2022/12/11 12:10:17;;;;;;;26.30;19.60;;;;;;;;;;5093424;28;21019;-74
2022/12/11 12:12:48;;;;;;;24.17;19.77;;;;;;;;;;5093205;28;20790;-74
2022/12/11 12:15:29;;;;;;;20.53;17.63;;;;;;;;;;5093997;28;20469;-76
2022/12/11 12:17:58;;;;;;;24.70;16.90;;;;;;;;;;5093806;28;20858;-75
2022/12/11 12:20:30;;;;;;;20.97;17.87;;;;;;;;;;5093985;28;20444;-75
2022/12/11 12:23:01;;;;;;;22.77;17.83;;;;;;;;;;5093233;28;20445;-75
2022/12/11 12:25:32;;;;;;;24.03;17.77;;;;;;;;;;5093565;28;20468;-76
2022/12/11 12:28:03;;;;;;;22.33;17.37;;;;;;;;;;5093457;28;20541;-75
2022/12/11 12:30:32;;;;;;;30.30;23.50;;;;;;;;;;5093249;28;20881;-76
2022/12/11 12:33:07;;;;;;;28.00;20.80;;;;;;;;;;5092982;28;20484;-75
2022/12/11 12:35:35;;;;;;;25.30;20.20;;;;;;;;;;5093693;28;20465;-76
2022/12/11 12:38:06;;;;;;;24.47;18.30;;;;;;;;;;5093803;28;20876;-75
2022/12/11 12:40:36;;;;;;;23.47;19.13;;;;;;;;;;5093274;28;20440;-75
2022/12/11 12:43:06;;;;;;;26.37;19.67;;;;;;;;;;5092604;28;20441;-75
2022/12/11 12:45:37;;;;;;;27.93;21.10;;;;;;;;;;5093679;28;20460;-74
2022/12/11 12:48:07;;;;;;;22.40;18.80;;;;;;;;;;5093349;28;20491;-75
2022/12/11 12:50:37;;;;;;;23.93;18.63;;;;;;;;;;5093433;28;20468;-76
2022/12/11 12:53:05;;;;;;;24.97;20.90;;;;;;;;;;5093223;28;20798;-75
2022/12/11 12:55:33;;;;;;;25.97;19.77;;;;;;;;;;5093075;28;20468;-76
2022/12/11 12:58:01;;;;;;;27.10;21.10;;;;;;;;;;5091772;28;20472;-75
2022/12/11 13:00:29;;;;;;;24.00;18.53;;;;;;;;;;5093072;28;20460;-75
2022/12/11 13:02:57;;;;;;;26.13;21.30;;;;;;;;;;5092482;28;20442;-75
2022/12/11 13:05:27;;;;;;;26.73;20.60;;;;;;;;;;5093125;28;20468;-76
2022/12/11 13:07:55;;;;;;;25.67;19.90;;;;;;;;;;5092860;28;20927;-75
2022/12/11 13:10:24;;;;;;;22.83;18.00;;;;;;;;;;5092500;28;20474;-76
2022/12/11 13:12:51;;;;;;;22.07;18.27;;;;;;;;;;5091905;28;20449;-76
2022/12/11 13:15:30;;;;;;;22.40;18.17;;;;;;;;;;5092656;28;20472;-74
2022/12/11 13:17:58;;;;;;;25.73;20.40;;;;;;;;;;5092677;28;20451;-75
2022/12/11 13:20:27;;;;;;;24.30;19.60;;;;;;;;;;5092813;28;20448;-75
2022/12/11 13:22:56;;;;;;;22.20;19.30;;;;;;;;;;5091490;28;21069;-76
2022/12/11 13:25:25;;;;;;;26.50;20.97;;;;;;;;;;5092469;28;20835;-75
2022/12/11 13:27:52;;;;;;;25.63;19.93;;;;;;;;;;5092763;28;20444;-75
2022/12/11 13:30:24;;;;;;;26.97;20.87;;;;;;;;;;5092656;28;20486;-76
2022/12/11 13:32:57;;;;;;;25.33;19.50;;;;;;;;;;5091715;28;20459;-77
2022/12/11 13:35:25;;;;;;;26.73;20.10;;;;;;;;;;5092327;28;20462;-76
2022/12/11 13:37:54;;;;;;;27.70;20.33;;;;;;;;;;5092390;28;20496;-75
2022/12/11 13:40:23;;;;;;;26.53;20.97;;;;;;;;;;5092601;28;20432;-75
2022/12/11 13:42:51;;;;;;;28.43;21.03;;;;;;;;;;5091445;28;20460;-76
2022/12/11 13:45:20;;;;;;;26.33;20.33;;;;;;;;;;5092591;28;20468;-75
2022/12/11 13:47:47;;;;;;;26.80;20.20;;;;;;;;;;5092692;28;20492;-76
2022/12/11 13:50:16;;;;;;;29.43;20.80;;;;;;;;;;5093061;28;21022;-77
2022/12/11 13:52:53;;;;;;;26.53;21.43;;;;;;;;;;5092658;28;20452;-75
2022/12/11 13:55:24;;;;;;;26.70;20.73;;;;;;;;;;5092495;28;20467;-75
2022/12/11 13:57:51;;;;;;;30.10;21.00;;;;;;;;;;5092514;28;20444;-75
2022/12/11 14:00:21;;;;;;;29.33;20.30;;;;;;;;;;5092160;28;20453;-77
2022/12/11 14:02:49;;;;;;;28.50;21.07;;;;;;;;;;5091178;28;20436;-77
2022/12/11 14:05:17;;;;;;;28.93;20.90;;;;;;;;;;5092650;28;20473;-75
2022/12/11 14:07:47;;;;;;;32.50;22.60;;;;;;;;;;5091913;28;20448;-75
2022/12/11 14:10:16;;;;;;;28.20;20.83;;;;;;;;;;5091612;28;20467;-75
2022/12/11 14:12:48;;;;;;;27.40;20.73;;;;;;;;;;5091430;28;20467;-75
2022/12/11 14:15:15;;;;;;;29.33;20.20;;;;;;;;;;5074103;28;20468;-74
2022/12/11 14:17:43;;;;;;;29.97;21.27;;;;;;;;;;5071722;28;20441;-75
2022/12/11 14:20:16;;;;;;;32.17;22.10;;;;;;;;;;5072138;28;20436;-77
2022/12/11 14:22:43;;;;;;;27.40;21.83;;;;;;;;;;5071842;28;20455;-77
2022/12/11 14:25:20;;;;;;;31.70;20.90;;;;;;;;;;5072762;28;20460;-75
2022/12/11 14:27:50;;;;;;;30.80;21.10;;;;;;;;;;5073176;28;20499;-75
2022/12/11 14:30:23;;;;;;;31.53;21.37;;;;;;;;;;5073419;28;20480;-74
2022/12/11 14:32:52;;;;;;;29.53;21.77;;;;;;;;;;5071795;28;20956;-75
2022/12/11 14:35:23;;;;;;;30.60;20.97;;;;;;;;;;5071443;28;20532;-76
2022/12/11 14:37:51;;;;;;;31.30;22.27;;;;;;;;;;5071321;28;20528;-74